Time;durP1;ratioP1;P1;durP2;ratioP2;P2;SDS_P1;SDS_P2;PMS_P1;PMS_P2;Temp;Humidity;BMP_temperature;BMP_pressure;BME280_temperature;BME280_humidity;BME280_pressure;Samples;Min_cycle;Max_cycle;Signal;HPM_P1;HPM_P2
2022/06/11 00:02:20;;;;;;;6.05;2.72;;;;;;;19.44;63.92;100128.47;4991179;28;20041;-72
2022/06/11 00:04:45;;;;;;;5.55;2.28;;;;;;;19.43;64.17;100131.25;5008090;28;20088;-74
2022/06/11 00:07:15;;;;;;;12.65;2.63;;;;;;;19.44;64.21;100132.94;5007621;28;20087;-73
2022/06/11 00:09:41;;;;;;;7.03;2.78;;;;;;;19.45;64.03;100123.94;5007935;28;20077;-71
2022/06/11 00:12:09;;;;;;;13.18;2.83;;;;;;;19.44;64.16;100123.09;5007820;28;20120;-73
2022/06/11 00:14:35;;;;;;;7.95;2.53;;;;;;;19.41;64.02;100128.69;5007889;28;20189;-73
2022/06/11 00:17:02;;;;;;;8.90;2.63;;;;;;;19.41;64.22;100122.47;4990354;28;20034;-73
2022/06/11 00:19:28;;;;;;;12.55;2.50;;;;;;;19.39;64.40;100119.94;5008885;28;20034;-72
2022/06/11 00:21:55;;;;;;;4.72;2.22;;;;;;;19.38;64.27;100123.59;5008075;28;20507;-72
2022/06/11 00:24:22;;;;;;;5.53;2.38;;;;;;;19.37;64.44;100118.34;5010403;28;20037;-75
2022/06/11 00:26:49;;;;;;;9.45;2.50;;;;;;;19.36;64.66;100120.19;5010807;28;20030;-74
2022/06/11 00:29:16;;;;;;;5.25;2.80;;;;;;;19.38;65.11;100125.41;5010649;28;20038;-74
2022/06/11 00:31:42;;;;;;;10.50;3.25;;;;;;;19.34;64.94;100116.78;5011879;28;20123;-75
2022/06/11 00:34:08;;;;;;;4.65;2.78;;;;;;;19.32;64.80;100124.09;5011498;28;20087;-75
2022/06/11 00:36:34;;;;;;;8.07;2.85;;;;;;;19.30;64.88;100121.53;5011040;28;20026;-75
2022/06/11 00:39:00;;;;;;;9.45;2.67;;;;;;;19.30;64.72;100124.22;5012145;28;20413;-75
2022/06/11 00:41:28;;;;;;;4.82;2.20;;;;;;;19.27;64.72;100121.78;5011574;28;20030;-75
2022/06/11 00:43:54;;;;;;;6.35;2.25;;;;;;;19.27;64.84;100121.78;5011740;28;20171;-74
2022/06/11 00:46:42;;;;;;;7.93;2.88;;;;;;;19.27;65.46;100121.78;5010733;28;20155;-74
2022/06/11 00:49:34;;;;;;;5.63;2.83;;;;;;;19.23;65.07;100127.50;5011270;28;20034;-74
2022/06/11 00:52:05;;;;;;;4.40;2.60;;;;;;;19.23;65.21;100123.00;5011162;28;20034;-74
2022/06/11 00:54:33;;;;;;;11.07;3.42;;;;;;;19.20;65.23;100128.59;5011366;28;20040;-73
2022/06/11 00:57:01;;;;;;;6.97;2.53;;;;;;;19.18;65.42;100133.22;5010774;28;20034;-74
2022/06/11 00:59:36;;;;;;;5.63;2.67;;;;;;;19.17;65.55;100131.50;5011294;28;20038;-74
2022/06/11 01:02:03;;;;;;;5.93;2.17;;;;;;;19.17;65.50;100136.00;5004103;28;20096;-74
2022/06/11 01:04:31;;;;;;;8.02;2.55;;;;;;;19.16;65.75;100132.47;5011387;28;20509;-74
2022/06/11 01:07:05;;;;;;;6.00;2.63;;;;;;;19.17;65.65;100131.50;5010562;28;20060;-74
2022/06/11 01:09:43;;;;;;;4.65;2.92;;;;;;;19.18;65.47;100121.66;5011355;28;20077;-74
2022/06/11 01:12:48;;;;;;;5.32;2.47;;;;;;;19.18;65.65;100121.66;4983408;28;20038;-74
2022/06/11 01:15:20;;;;;;;13.27;2.90;;;;;;;19.17;65.50;100120.78;4991138;28;20050;-74
2022/06/11 01:18:06;;;;;;;7.70;2.85;;;;;;;19.17;65.52;100117.28;4972869;28;20041;-75
2022/06/11 01:20:54;;;;;;;5.95;2.85;;;;;;;19.14;65.70;100118.38;4991529;28;20038;-74
2022/06/11 01:23:51;;;;;;;11.02;3.15;;;;;;;19.13;66.07;100113.16;4990973;28;20113;-74
2022/06/11 01:26:25;;;;;;;;;;;;;;;19.09;65.82;100108.06;4990599;28;20518;-74
2022/06/11 01:29:23;;;;;;;10.23;2.90;;;;;;;19.06;66.09;100116.31;4991330;28;19939;-74
2022/06/11 01:32:00;;;;;;;8.35;2.65;;;;;;;19.05;65.84;100116.44;4991338;28;20038;-75
2022/06/11 01:34:39;;;;;;;6.75;3.00;;;;;;;19.05;65.97;100119.97;4990928;28;20543;-75
2022/06/11 01:37:12;;;;;;;8.60;3.65;;;;;;;19.03;66.34;100121.06;4974402;28;20511;-75
2022/06/11 01:39:59;;;;;;;5.20;2.60;;;;;;;19.01;66.55;100105.16;4991417;28;20027;-75
2022/06/11 01:42:50;;;;;;;6.80;2.75;;;;;;;19.03;66.74;100113.06;4990837;28;20038;-75
2022/06/11 01:45:36;;;;;;;6.13;2.30;;;;;;;19.02;65.94;100108.66;4990531;28;20030;-74
2022/06/11 01:48:04;;;;;;;6.30;2.63;;;;;;;19.00;66.29;100107.94;4990047;28;20042;-75
2022/06/11 01:50:34;;;;;;;6.38;3.17;;;;;;;18.99;66.50;100107.09;4990434;28;20133;-75
2022/06/11 01:53:44;;;;;;;7.95;2.85;;;;;;;18.97;66.85;100095.66;4990549;28;20034;-75
2022/06/11 01:56:28;;;;;;;7.60;3.63;;;;;;;18.95;66.99;100100.31;4912805;29;20036;-75
2022/06/11 01:59:14;;;;;;;8.48;2.70;;;;;;;18.95;66.52;100102.97;4911410;29;20096;-76
2022/06/11 02:01:55;;;;;;;6.97;3.30;;;;;;;18.96;66.72;100107.34;4969048;28;20023;-75
2022/06/11 02:04:52;;;;;;;6.25;2.42;;;;;;;18.98;65.77;100109.91;5009363;28;20037;-75
2022/06/11 02:07:31;;;;;;;5.85;2.60;;;;;;;18.97;65.50;100114.38;5008684;28;20030;-73
2022/06/11 02:10:16;;;;;;;8.07;2.70;;;;;;;18.99;66.38;100117.78;5010030;28;20036;-74
2022/06/11 02:13:03;;;;;;;4.80;2.47;;;;;;;18.97;66.00;100114.38;5009968;28;20132;-74
2022/06/11 02:15:34;;;;;;;7.20;1.88;;;;;;;18.99;66.08;100119.59;5010237;28;20040;-74
2022/06/11 02:18:05;;;;;;;6.05;2.20;;;;;;;18.99;66.11;100119.59;5009114;28;20525;-74
2022/06/11 02:20:59;;;;;;;9.13;3.00;;;;;;;18.98;66.17;100115.25;4991819;28;20041;-74
2022/06/11 02:23:32;;;;;;;5.80;3.38;;;;;;;18.92;66.80;100127.25;5006619;28;20072;-74
2022/06/11 02:26:02;;;;;;;5.40;2.85;;;;;;;18.90;67.02;100123.00;5009029;28;20583;-74
2022/06/11 02:28:31;;;;;;;9.55;3.40;;;;;;;18.83;67.29;100120.81;5009110;28;20038;-74
2022/06/11 02:31:02;;;;;;;3.95;2.53;;;;;;;18.78;66.74;100119.44;5009578;28;20041;-74
2022/06/11 02:33:30;;;;;;;4.10;2.50;;;;;;;18.72;67.53;100119.91;4992245;28;20521;-76
2022/06/11 02:36:03;;;;;;;5.45;2.35;;;;;;;18.60;68.11;100122.56;5009078;28;20022;-75
2022/06/11 02:38:29;;;;;;;5.53;2.53;;;;;;;18.57;68.37;100125.47;5009750;28;20551;-77
2022/06/11 02:40:59;;;;;;;4.65;2.60;;;;;;;18.52;68.63;100127.66;5009859;28;20033;-75
2022/06/11 02:43:26;;;;;;;5.95;2.55;;;;;;;18.48;69.11;100122.66;4991940;28;20053;-75
2022/06/11 02:45:51;;;;;;;7.45;3.35;;;;;;;18.40;69.30;100134.78;5008997;28;20045;-75
2022/06/11 02:48:16;;;;;;;5.00;2.70;;;;;;;18.31;69.17;100130.16;5008623;28;20044;-75
2022/06/11 02:50:46;;;;;;;14.73;3.60;;;;;;;18.30;69.37;100136.44;4991735;28;20494;-74
2022/06/11 02:53:12;;;;;;;8.05;2.38;;;;;;;18.26;69.85;100142.97;5009107;28;20452;-74
2022/06/11 02:55:38;;;;;;;5.75;2.78;;;;;;;18.23;69.81;100141.38;5010129;28;20065;-74
2022/06/11 02:58:07;;;;;;;3.60;2.38;;;;;;;18.24;69.96;100144.94;5008661;28;20037;-74
2022/06/11 03:00:38;;;;;;;5.78;2.40;;;;;;;18.22;70.23;100139.69;5009024;28;20038;-74
2022/06/11 03:03:04;;;;;;;8.02;3.00;;;;;;;18.22;70.26;100144.19;5009142;28;20029;-74
2022/06/11 03:05:33;;;;;;;6.40;2.55;;;;;;;18.19;70.19;100142.59;5008963;28;20129;-74
2022/06/11 03:08:00;;;;;;;8.13;2.63;;;;;;;18.17;70.53;100139.19;5008286;28;20033;-75
2022/06/11 03:10:27;;;;;;;8.60;3.22;;;;;;;18.10;71.15;100139.78;5009141;28;20536;-75
2022/06/11 03:12:53;;;;;;;5.03;2.90;;;;;;;18.04;71.27;100138.41;5009233;28;20083;-75
2022/06/11 03:15:20;;;;;;;5.72;2.80;;;;;;;18.05;71.44;100140.13;5007975;28;20097;-75
2022/06/11 03:17:48;;;;;;;8.38;3.13;;;;;;;17.98;72.14;100141.53;4991124;28;20034;-75
2022/06/11 03:20:15;;;;;;;5.82;3.08;;;;;;;17.92;72.56;100144.66;4988956;28;20034;-74
2022/06/11 03:22:41;;;;;;;9.73;3.28;;;;;;;17.91;72.02;100140.28;4989552;28;20037;-74
2022/06/11 03:25:08;;;;;;;10.73;3.22;;;;;;;17.95;71.78;100139.09;4989640;28;20034;-74
2022/06/11 03:27:34;;;;;;;5.93;2.45;;;;;;;17.95;71.41;100139.94;4991526;28;20081;-75
2022/06/11 03:30:00;;;;;;;7.40;3.22;;;;;;;17.96;71.99;100146.97;4991892;28;20049;-74
2022/06/11 03:32:26;;;;;;;7.47;2.60;;;;;;;17.93;71.99;100143.69;4989943;28;20026;-74
2022/06/11 03:34:51;;;;;;;10.15;3.13;;;;;;;17.94;71.58;100143.59;4989675;28;20022;-74
2022/06/11 03:37:18;;;;;;;7.63;2.58;;;;;;;17.94;71.80;100140.03;4988869;28;20502;-74
2022/06/11 03:39:43;;;;;;;12.70;2.80;;;;;;;17.96;71.57;100144.31;4989867;28;20390;-74
2022/06/11 03:42:09;;;;;;;4.40;2.53;;;;;;;17.97;71.05;100148.69;4990142;28;20039;-74
2022/06/11 03:44:35;;;;;;;5.82;2.90;;;;;;;18.00;70.75;100151.13;4989838;28;20040;-75
2022/06/11 03:47:01;;;;;;;8.10;2.28;;;;;;;18.00;70.90;100147.59;4988793;28;20045;-74
2022/06/11 03:49:26;;;;;;;3.63;2.58;;;;;;;18.02;70.87;100151.03;4989285;28;20042;-74
2022/06/11 03:51:52;;;;;;;6.22;2.53;;;;;;;18.05;70.81;100149.94;4989030;28;20089;-76
2022/06/11 03:54:17;;;;;;;5.75;3.22;;;;;;;18.03;70.80;100144.72;4989251;28;20397;-75
2022/06/11 03:56:46;;;;;;;5.15;3.08;;;;;;;18.00;70.75;100145.78;4988738;28;20038;-76
2022/06/11 03:59:12;;;;;;;6.47;2.95;;;;;;;18.01;70.98;100143.97;4990781;28;20113;-76
2022/06/11 04:01:39;;;;;;;6.70;2.85;;;;;;;18.03;70.83;100150.03;4992765;28;20041;-75
2022/06/11 04:04:09;;;;;;;7.35;2.92;;;;;;;17.99;71.68;100152.09;4999823;28;20057;-77
2022/06/11 04:06:39;;;;;;;4.75;2.55;;;;;;;18.00;71.20;100159.13;5012291;28;20061;-72
2022/06/11 04:09:08;;;;;;;8.00;2.40;;;;;;;18.05;70.74;100158.78;5012186;28;20088;-73
2022/06/11 04:11:34;;;;;;;4.82;2.47;;;;;;;18.09;70.77;100162.06;5012354;28;20037;-74
2022/06/11 04:14:00;;;;;;;4.45;2.45;;;;;;;18.12;70.65;100160.03;5012193;28;20056;-74
2022/06/11 04:16:40;;;;;;;10.25;3.85;;;;;;;18.14;70.62;100163.44;5011853;28;20041;-76
2022/06/11 04:19:08;;;;;;;9.00;2.95;;;;;;;18.15;70.95;100167.81;5012425;28;20030;-75
2022/06/11 04:21:35;;;;;;;4.38;2.47;;;;;;;18.20;70.59;100168.31;5012274;28;20670;-75
2022/06/11 04:24:03;;;;;;;5.28;3.03;;;;;;;18.26;70.47;100164.31;5012336;28;20032;-74
2022/06/11 04:26:33;;;;;;;8.68;2.78;;;;;;;18.29;70.21;100164.13;5011138;28;20456;-74
2022/06/11 04:29:00;;;;;;;10.50;3.28;;;;;;;18.35;70.45;100160.13;4994569;28;20114;-74
2022/06/11 04:31:27;;;;;;;5.45;2.50;;;;;;;18.37;69.53;100167.03;5012165;28;20053;-74
2022/06/11 04:33:53;;;;;;;5.18;2.30;;;;;;;18.39;69.15;100173.13;5012408;28;20038;-74
2022/06/11 04:36:22;;;;;;;5.38;2.78;;;;;;;18.41;69.08;100170.31;5010574;28;20104;-74
2022/06/11 04:38:47;;;;;;;5.38;2.63;;;;;;;18.43;68.80;100169.25;5011917;28;20060;-74
2022/06/11 04:41:13;;;;;;;9.13;2.83;;;;;;;18.46;68.54;100170.84;5011955;28;20482;-74
2022/06/11 04:43:39;;;;;;;4.47;2.85;;;;;;;18.46;68.50;100162.84;5012394;28;20088;-74
2022/06/11 04:46:05;;;;;;;8.02;2.50;;;;;;;18.51;68.58;100175.81;5010810;28;20048;-73
2022/06/11 04:48:31;;;;;;;4.72;2.20;;;;;;;18.56;68.42;100171.00;5011583;28;20030;-74
2022/06/11 04:50:56;;;;;;;11.73;3.22;;;;;;;18.63;68.29;100174.88;5012020;28;20037;-73
2022/06/11 04:53:22;;;;;;;4.65;2.58;;;;;;;18.70;67.56;100169.91;5012602;28;20038;-73
2022/06/11 04:55:47;;;;;;;4.78;2.50;;;;;;;18.74;67.75;100171.41;5013005;28;20393;-73
2022/06/11 04:58:12;;;;;;;3.53;2.72;;;;;;;18.77;67.51;100177.38;5011749;28;20108;-75
2022/06/11 05:00:38;;;;;;;9.32;3.72;;;;;;;18.82;67.52;100177.88;4994952;28;20377;-75
2022/06/11 05:03:04;;;;;;;6.05;2.90;;;;;;;18.85;67.27;100180.31;5011818;28;20045;-76
2022/06/11 05:05:30;;;;;;;6.13;2.88;;;;;;;18.86;67.28;100187.34;5011892;28;20042;-76
2022/06/11 05:07:56;;;;;;;5.13;2.65;;;;;;;18.84;67.24;100180.44;5010657;28;20049;-76
2022/06/11 05:10:24;;;;;;;5.15;2.60;;;;;;;18.85;67.25;100174.09;5011180;28;20091;-75
2022/06/11 05:12:53;;;;;;;5.60;2.40;;;;;;;18.88;67.18;100177.41;5001883;28;20440;-74
2022/06/11 05:15:19;;;;;;;6.28;2.50;;;;;;;18.92;67.08;100183.34;4997412;28;20505;-75
2022/06/11 05:17:44;;;;;;;5.07;2.53;;;;;;;18.95;67.10;100179.59;5010048;28;20585;-74
2022/06/11 05:20:10;;;;;;;8.82;3.33;;;;;;;18.94;67.28;100181.41;5011278;28;20163;-76
2022/06/11 05:22:37;;;;;;;3.63;2.33;;;;;;;18.95;67.40;100183.13;4993703;28;20037;-76
2022/06/11 05:25:04;;;;;;;7.13;3.10;;;;;;;18.96;67.27;100176.81;5010091;28;20517;-77
2022/06/11 05:27:29;;;;;;;5.93;2.80;;;;;;;18.98;67.11;100185.56;4991061;28;20085;-76
2022/06/11 05:30:03;;;;;;;7.63;3.15;;;;;;;18.99;67.29;100189.91;4980810;28;20118;-76
2022/06/11 05:32:32;;;;;;;7.60;3.42;;;;;;;18.98;67.29;100190.91;4991356;28;20036;-76
2022/06/11 05:34:59;;;;;;;4.57;2.65;;;;;;;19.00;67.31;100182.75;4991040;28;20486;-76
2022/06/11 05:37:25;;;;;;;8.20;2.70;;;;;;;19.01;67.06;100182.63;4990434;28;20411;-76
2022/06/11 05:39:50;;;;;;;7.57;3.22;;;;;;;19.05;66.87;100188.56;4990679;28;20042;-75
2022/06/11 05:42:18;;;;;;;7.38;2.75;;;;;;;19.07;66.72;100194.66;4990974;28;20053;-75
2022/06/11 05:44:43;;;;;;;6.82;3.17;;;;;;;19.07;66.58;100192.88;4991029;28;20045;-75
2022/06/11 05:47:12;;;;;;;4.82;2.50;;;;;;;19.11;66.66;100187.28;4990410;28;20042;-77
2022/06/11 05:49:41;;;;;;;8.00;2.25;;;;;;;19.16;66.45;100182.41;4990158;28;20529;-76
2022/06/11 05:52:11;;;;;;;3.85;2.28;;;;;;;19.18;66.35;100184.00;4990771;28;20046;-77
2022/06/11 05:54:39;;;;;;;5.15;2.35;;;;;;;19.24;66.17;100185.31;4991052;28;20034;-76
2022/06/11 05:57:08;;;;;;;5.30;2.60;;;;;;;19.28;65.96;100192.97;4990344;28;20034;-75
2022/06/11 05:59:40;;;;;;;5.18;2.65;;;;;;;19.32;65.67;100188.25;4973576;28;20030;-76
2022/06/11 06:02:10;;;;;;;5.93;2.40;;;;;;;19.37;65.66;100195.88;4990322;28;20072;-76
2022/06/11 06:04:37;;;;;;;5.85;3.05;;;;;;;19.40;65.33;100193.84;5003170;28;20037;-76
2022/06/11 06:07:02;;;;;;;5.22;2.25;;;;;;;19.46;65.12;100197.84;5009299;28;20034;-76
2022/06/11 06:09:28;;;;;;;4.93;2.90;;;;;;;19.51;65.21;100196.47;4976503;28;20401;-75
2022/06/11 06:11:53;;;;;;;6.18;3.00;;;;;;;19.57;64.92;100194.31;4991548;28;20037;-75
2022/06/11 06:14:18;;;;;;;4.85;2.90;;;;;;;19.64;64.94;100191.03;4992292;28;20042;-75
2022/06/11 06:16:44;;;;;;;5.85;2.83;;;;;;;19.69;64.66;100204.91;4972754;28;20041;-76
2022/06/11 06:19:09;;;;;;;3.75;2.70;;;;;;;19.70;64.41;100198.56;4991093;28;20041;-77
2022/06/11 06:21:37;;;;;;;6.25;3.03;;;;;;;19.75;64.45;100200.88;4990448;28;20542;-75
2022/06/11 06:24:03;;;;;;;6.47;2.53;;;;;;;19.79;64.49;100199.66;4990546;28;20038;-75
2022/06/11 06:26:34;;;;;;;5.82;2.63;;;;;;;19.90;63.97;100204.13;4971508;28;20510;-75
2022/06/11 06:29:00;;;;;;;4.63;2.40;;;;;;;19.99;64.11;100203.38;4988893;28;20042;-74
2022/06/11 06:31:26;;;;;;;3.08;2.40;;;;;;;20.05;63.81;100202.03;4990455;28;20065;-76
2022/06/11 06:33:51;;;;;;;4.97;2.67;;;;;;;20.08;63.80;100209.78;4979899;28;20084;-76
2022/06/11 06:36:20;;;;;;;7.32;2.55;;;;;;;20.12;63.75;100213.94;4990552;28;20057;-77
2022/06/11 06:38:45;;;;;;;4.40;3.00;;;;;;;20.18;63.74;100205.38;4974490;28;20038;-76
2022/06/11 06:41:12;;;;;;;4.60;3.25;;;;;;;20.22;63.90;100203.31;4994786;28;20076;-77
2022/06/11 06:43:38;;;;;;;2.80;2.30;;;;;;;20.32;63.56;100198.88;4977065;28;20050;-77
2022/06/11 06:46:04;;;;;;;4.97;2.45;;;;;;;20.37;63.00;100204.72;4975704;28;20506;-77
2022/06/11 06:48:29;;;;;;;6.53;2.63;;;;;;;20.44;62.62;100202.38;4991817;28;20308;-77
2022/06/11 06:50:55;;;;;;;6.22;2.20;;;;;;;20.45;62.96;100204.91;4989531;28;20406;-74
2022/06/11 06:53:21;;;;;;;5.45;3.00;;;;;;;20.47;62.78;100210.16;4976737;28;20061;-73
2022/06/11 06:55:46;;;;;;;5.13;2.35;;;;;;;20.54;62.60;100203.28;4991414;28;20034;-73
2022/06/11 06:58:14;;;;;;;7.85;2.80;;;;;;;20.56;62.37;100207.56;4990847;28;20040;-73
2022/06/11 07:00:41;;;;;;;7.60;2.50;;;;;;;20.63;61.99;100202.56;4990512;28;20041;-73
2022/06/11 07:03:06;;;;;;;8.75;2.50;;;;;;;20.67;61.90;100205.81;4990096;28;20031;-77
2022/06/11 07:05:32;;;;;;;5.53;2.45;;;;;;;20.74;60.96;100209.69;4991784;28;20391;-78
2022/06/11 07:07:57;;;;;;;5.60;2.17;;;;;;;20.73;60.61;100202.63;4975494;28;20042;-74
2022/06/11 07:10:24;;;;;;;3.60;1.92;;;;;;;20.73;60.67;100208.00;4990626;28;20068;-74
2022/06/11 07:12:50;;;;;;;3.58;1.70;;;;;;;20.77;61.02;100206.72;4989898;28;20408;-73
2022/06/11 07:15:16;;;;;;;3.88;2.13;;;;;;;20.89;60.30;100204.84;4990148;28;20038;-75
2022/06/11 07:17:48;;;;;;;4.88;2.35;;;;;;;21.06;60.06;100204.22;4989856;28;20118;-58
2022/06/11 07:20:18;;;;;;;2.95;1.65;;;;;;;21.33;59.06;100202.81;4990185;28;20074;-57
2022/06/11 07:22:52;;;;;;;3.67;2.00;;;;;;;21.47;58.40;100201.66;4990689;28;20041;-56
2022/06/11 07:25:18;;;;;;;2.55;1.75;;;;;;;21.49;58.21;100205.03;4972908;28;20054;-59
2022/06/11 07:27:50;;;;;;;7.15;2.05;;;;;;;21.75;57.47;100202.72;4989293;28;20081;-59
2022/06/11 07:30:21;;;;;;;3.88;1.90;;;;;;;22.00;56.92;100210.28;4989583;28;20039;-59
2022/06/11 07:32:53;;;;;;;3.97;2.20;;;;;;;22.17;56.59;100202.50;5002914;28;20057;-59
2022/06/11 07:35:19;;;;;;;4.97;2.00;;;;;;;22.34;56.31;100206.38;5008633;28;20397;-59
2022/06/11 07:37:48;;;;;;;5.05;2.30;;;;;;;22.49;55.89;100205.78;5007914;28;20037;-58
2022/06/11 07:40:15;;;;;;;6.15;2.63;;;;;;;22.49;55.59;100213.84;5012607;28;20044;-58
2022/06/11 07:42:40;;;;;;;5.40;2.78;;;;;;;22.45;56.13;100215.16;5013327;28;20037;-60
2022/06/11 07:45:06;;;;;;;7.18;4.00;;;;;;;22.39;56.87;100218.38;5012059;28;20065;-59
2022/06/11 07:48:17;;;;;;;6.88;2.90;;;;;;;22.21;57.44;100220.91;5011483;28;20053;-60
2022/06/11 07:50:17;;;;;;;16.02;3.65;;;;;;;22.07;58.41;100215.91;5002023;28;20048;-61
2022/06/11 07:52:43;;;;;;;11.07;3.75;;;;;;;21.97;58.91;100225.78;5013469;28;20405;-60
2022/06/11 07:55:10;;;;;;;9.18;3.58;;;;;;;22.15;58.26;100228.66;5012994;28;20474;-61
2022/06/11 07:57:37;;;;;;;6.32;3.58;;;;;;;22.05;58.69;100223.25;5011471;28;20381;-62
2022/06/11 08:00:04;;;;;;;4.78;3.15;;;;;;;22.14;58.51;100227.81;5002438;28;20042;-61
2022/06/11 08:02:29;;;;;;;6.10;3.65;;;;;;;22.11;58.46;100228.09;5010304;28;20037;-61
2022/06/11 08:04:54;;;;;;;7.50;3.92;;;;;;;21.79;59.08;100226.47;5012347;28;20029;-57
2022/06/11 08:07:20;;;;;;;12.40;7.50;;;;;;;21.74;59.75;100230.56;4994104;28;20072;-61
2022/06/11 08:09:45;;;;;;;9.48;4.38;;;;;;;21.54;59.61;100230.47;5012304;28;20029;-60
2022/06/11 08:12:11;;;;;;;11.75;4.47;;;;;;;21.53;59.70;100233.28;5012150;28;20037;-60
2022/06/11 08:14:36;;;;;;;8.35;4.13;;;;;;;21.56;59.42;100247.28;5012205;28;20371;-59
2022/06/11 08:17:02;;;;;;;7.93;2.88;;;;;;;21.61;58.55;100241.53;5012089;28;20092;-61
2022/06/11 08:19:28;;;;;;;8.43;3.75;;;;;;;21.87;58.48;100236.50;5011842;28;20113;-63
2022/06/11 08:21:56;;;;;;;8.48;2.97;;;;;;;22.15;57.17;100242.94;5010383;28;20064;-64
2022/06/11 08:24:21;;;;;;;7.65;2.70;;;;;;;22.37;56.56;100243.69;4992537;28;20406;-62
2022/06/11 08:26:46;;;;;;;6.40;2.92;;;;;;;22.47;55.49;100237.34;4992236;28;20043;-78
2022/06/11 08:29:12;;;;;;;4.75;2.67;;;;;;;22.46;55.47;100246.38;4979800;28;20060;-75
2022/06/11 08:31:37;;;;;;;5.18;2.50;;;;;;;22.60;55.31;100242.44;5008988;28;20038;-75
2022/06/11 08:34:04;;;;;;;10.93;3.47;;;;;;;22.71;54.88;100239.59;5007542;28;20038;-72
2022/06/11 08:36:30;;;;;;;7.07;2.95;;;;;;;22.83;54.29;100239.44;5007084;28;20046;-73
2022/06/11 08:38:55;;;;;;;10.25;3.20;;;;;;;22.85;54.08;100232.09;5006765;28;20046;-72
2022/06/11 08:41:27;;;;;;;9.60;3.00;;;;;;;22.91;54.20;100237.75;5006814;28;20050;-72
2022/06/11 08:43:59;;;;;;;3.80;2.35;;;;;;;22.83;54.06;100232.22;5007363;28;20040;-72
2022/06/11 08:46:28;;;;;;;5.43;3.03;;;;;;;22.79;53.93;100236.22;5006388;28;20038;-72
2022/06/11 08:49:08;;;;;;;8.95;2.70;;;;;;;22.84;53.98;100233.94;5006800;28;20037;-73
2022/06/11 08:51:55;;;;;;;6.57;2.85;;;;;;;23.17;53.57;100225.53;5005727;28;20052;-72
2022/06/11 08:54:31;;;;;;;7.85;3.00;;;;;;;23.48;52.52;100231.50;5006890;28;20060;-73
2022/06/11 08:57:06;;;;;;;7.63;3.20;;;;;;;23.70;51.90;100232.97;5006898;28;20029;-73
2022/06/11 08:59:52;;;;;;;4.40;2.88;;;;;;;24.10;51.22;100221.88;5006800;28;20393;-73
2022/06/11 09:02:33;;;;;;;6.60;3.00;;;;;;;24.87;48.90;100216.84;5006633;28;20030;-73
2022/06/11 09:05:35;;;;;;;6.55;3.13;;;;;;;25.42;47.28;100221.09;5007567;28;20038;-72
2022/06/11 09:08:13;;;;;;;5.93;3.03;;;;;;;25.10;47.73;100216.31;5006130;28;20041;-70
2022/06/11 09:10:55;;;;;;;4.35;2.60;;;;;;;24.87;48.26;100216.84;5006052;28;20050;-71
2022/06/11 09:13:58;;;;;;;6.45;3.47;;;;;;;24.52;49.14;100223.16;5006179;28;20052;-71
2022/06/11 09:16:49;;;;;;;3.67;3.13;;;;;;;24.55;49.41;100215.56;5008444;28;20053;-71
2022/06/11 09:19:49;;;;;;;7.78;3.70;;;;;;;24.77;48.44;100221.50;5007599;28;20089;-70
2022/06/11 09:22:27;;;;;;;6.32;2.60;;;;;;;24.46;49.35;100215.66;5007906;28;20044;-71
2022/06/11 09:25:08;;;;;;;5.38;3.90;;;;;;;24.18;49.81;100221.09;5009514;28;20121;-70
2022/06/11 09:27:48;;;;;;;5.18;3.80;;;;;;;24.46;49.34;100221.88;5007197;28;20076;-70
2022/06/11 09:30:18;;;;;;;4.45;3.17;;;;;;;25.01;48.15;100212.75;5006681;28;20045;-70
2022/06/11 09:33:07;;;;;;;4.43;2.53;;;;;;;25.39;47.99;100211.47;5006580;28;20065;-72
2022/06/11 09:35:53;;;;;;;6.80;3.60;;;;;;;26.21;45.55;100214.47;4977516;28;20042;-72
2022/06/11 09:38:28;;;;;;;10.00;4.88;;;;;;;27.24;43.92;100218.53;4986404;28;20089;-72
2022/06/11 09:41:09;;;;;;;6.40;4.20;;;;;;;27.22;44.04;100218.72;4986706;28;20077;-73
2022/06/11 09:43:55;;;;;;;7.00;2.75;;;;;;;26.55;44.82;100218.91;4986797;28;20039;-73
2022/06/11 09:46:43;;;;;;;5.63;3.55;;;;;;;26.46;45.46;100236.97;4985984;28;20039;-72
2022/06/11 09:49:30;;;;;;;8.50;3.80;;;;;;;26.84;44.32;100229.22;4986805;28;20042;-72
2022/06/11 09:52:07;;;;;;;5.65;3.25;;;;;;;26.58;44.91;100232.09;4986178;28;20564;-73
2022/06/11 09:54:51;;;;;;;5.65;3.50;;;;;;;25.95;45.98;100230.78;4986158;28;20748;-73
2022/06/11 09:57:21;;;;;;;6.43;3.53;;;;;;;25.58;46.75;100229.28;4985944;28;20061;-74
2022/06/11 09:59:52;;;;;;;9.98;4.45;;;;;;;26.06;45.50;100235.03;4986072;28;20825;-74
2022/06/11 10:02:37;;;;;;;5.65;3.40;;;;;;;25.85;45.60;100230.94;4986131;28;20450;-74
2022/06/11 10:05:13;;;;;;;5.70;3.30;;;;;;;26.54;44.05;100225.34;4986368;28;20038;-75
2022/06/11 10:07:44;;;;;;;5.15;3.40;;;;;;;27.55;42.55;100216.75;4985418;28;20061;-73
2022/06/11 10:10:26;;;;;;;7.10;3.63;;;;;;;28.35;41.34;100218.38;4995956;28;20033;-72
2022/06/11 10:12:57;;;;;;;5.43;3.35;;;;;;;28.26;39.71;100228.44;5005291;28;20038;-72
2022/06/11 10:15:32;;;;;;;3.50;3.20;;;;;;;28.88;39.29;100229.34;4987643;28;20046;-73
2022/06/11 10:18:22;;;;;;;6.50;3.88;;;;;;;29.36;38.65;100232.59;5002830;28;20038;-74
2022/06/11 10:20:53;;;;;;;7.22;3.63;;;;;;;29.80;38.33;100229.03;4970534;28;20042;-76
2022/06/11 10:23:25;;;;;;;6.95;4.22;;;;;;;30.31;37.01;100225.47;4986383;28;20046;-76
2022/06/11 10:26:18;;;;;;;7.15;3.17;;;;;;;30.59;36.52;100225.53;4985393;28;20402;-70
2022/06/11 10:28:53;;;;;;;5.82;2.70;;;;;;;30.85;35.85;100222.22;4985764;28;20498;-70
2022/06/11 10:31:25;;;;;;;4.82;2.92;;;;;;;31.00;35.40;100217.53;4985726;28;20196;-68
2022/06/11 10:33:57;;;;;;;8.25;3.17;;;;;;;31.16;35.69;100224.56;4985172;28;20856;-70
2022/06/11 10:36:47;;;;;;;4.97;3.25;;;;;;;31.13;35.37;100224.09;4995041;28;20038;-71
2022/06/11 10:39:23;;;;;;;6.20;2.63;;;;;;;30.87;35.92;100222.88;4984381;28;20038;-70
2022/06/11 10:42:06;;;;;;;6.45;3.10;;;;;;;30.10;36.95;100220.81;5000194;28;20072;-71
2022/06/11 10:44:37;;;;;;;5.43;3.90;;;;;;;29.53;38.85;100228.66;5004874;28;20041;-72
2022/06/11 10:47:18;;;;;;;6.55;3.40;;;;;;;30.04;37.58;100227.88;5004251;28;20038;-71
2022/06/11 10:49:51;;;;;;;29.80;24.27;;;;;;;30.42;36.63;100224.09;4987341;28;20042;-71
2022/06/11 10:52:41;;;;;;;10.82;6.57;;;;;;;30.45;36.69;100213.69;5004783;28;20076;-71
2022/06/11 10:55:11;;;;;;;6.15;3.10;;;;;;;30.26;36.07;100215.19;5004784;28;20049;-71
2022/06/11 10:57:38;;;;;;;5.88;3.10;;;;;;;30.20;36.84;100215.94;5004366;28;20066;-71
2022/06/11 11:00:16;;;;;;;4.63;2.40;;;;;;;29.81;37.11;100210.88;5004684;28;20042;-71
2022/06/11 11:03:02;;;;;;;9.13;3.28;;;;;;;28.59;39.66;100219.25;5005035;28;20049;-71
2022/06/11 11:05:45;;;;;;;4.70;2.95;;;;;;;27.78;41.33;100216.81;5004653;28;20057;-71
2022/06/11 11:08:12;;;;;;;8.18;2.75;;;;;;;27.42;42.32;100219.19;5004236;28;20073;-71
2022/06/11 11:10:47;;;;;;;5.53;2.97;;;;;;;27.11;43.15;100219.91;5004924;28;20042;-71
2022/06/11 11:13:30;;;;;;;6.18;3.00;;;;;;;26.86;43.43;100221.81;5006573;28;20061;-71
2022/06/11 11:16:08;;;;;;;4.32;2.83;;;;;;;26.55;44.37;100219.75;5010632;28;20864;-70
2022/06/11 11:18:42;;;;;;;7.15;2.83;;;;;;;26.51;44.22;100214.84;5011234;28;20173;-71
2022/06/11 11:21:16;;;;;;;5.90;2.70;;;;;;;26.51;44.85;100220.25;5011700;28;20040;-70
2022/06/11 11:23:43;;;;;;;6.43;3.20;;;;;;;26.47;44.30;100219.72;5010971;28;21001;-70
2022/06/11 11:26:18;;;;;;;7.38;3.20;;;;;;;26.34;44.84;100216.69;5010189;28;20088;-70
2022/06/11 11:28:52;;;;;;;4.78;3.17;;;;;;;26.11;45.03;100216.47;4993545;28;20045;-70
2022/06/11 11:31:25;;;;;;;5.85;2.50;;;;;;;26.06;45.13;100214.25;4997834;28;20493;-70
2022/06/11 11:34:13;;;;;;;4.15;3.10;;;;;;;26.05;45.14;100212.56;4991468;28;20205;-69
2022/06/11 11:36:39;;;;;;;7.60;3.10;;;;;;;26.00;45.60;100216.78;4990262;28;20041;-71
2022/06/11 11:39:13;;;;;;;5.10;2.85;;;;;;;25.91;45.38;100205.09;4990013;28;20030;-69
2022/06/11 11:42:00;;;;;;;3.25;2.28;;;;;;;25.75;45.89;100205.88;4991179;28;20034;-48
2022/06/11 11:44:26;;;;;;;9.85;2.53;;;;;;;25.78;45.94;100213.66;4990040;28;20042;-47
2022/06/11 11:46:55;;;;;;;4.18;2.40;;;;;;;25.86;45.72;100207.47;4972997;28;20765;-49